createdAt,value
2022-10-06T00:01:48.549Z,100726.75
2022-10-06T00:04:16.935Z,100733.81
2022-10-06T00:06:46.647Z,100726.16
2022-10-06T00:09:15.018Z,100725.19
2022-10-06T00:11:43.361Z,100732.97
2022-10-06T00:14:11.767Z,100725.13
2022-10-06T00:16:40.140Z,100735.44
2022-10-06T00:19:08.555Z,100734.38
2022-10-06T00:21:36.978Z,100731.91
2022-10-06T00:24:07.117Z,100734.72
2022-10-06T00:26:36.042Z,100731.13
2022-10-06T00:29:04.597Z,100741.66
2022-10-06T00:31:34.549Z,100744.34
2022-10-06T00:34:03.000Z,100746.03
2022-10-06T00:36:31.360Z,100744.25
2022-10-06T00:38:59.846Z,100750.34
2022-10-06T00:41:29.707Z,100753.56
2022-10-06T00:43:59.631Z,100755.13
2022-10-06T00:46:36.887Z,100768.22
2022-10-06T00:49:12.254Z,100766.28
2022-10-06T00:51:46.274Z,100781.94
2022-10-06T00:54:14.826Z,100781.59
2022-10-06T00:56:45.088Z,100791.34
2022-10-06T00:59:16.340Z,100794.78
2022-10-06T01:01:51.160Z,100789.50
2022-10-06T01:04:20.249Z,100795.50
2022-10-06T01:06:53.366Z,100792.06
2022-10-06T01:09:23.868Z,100792.13
2022-10-06T01:11:57.590Z,100796.66
2022-10-06T01:14:26.279Z,100799.22
2022-10-06T01:17:01.946Z,100802.72
2022-10-06T01:19:43.796Z,100797.56
2022-10-06T01:22:15.786Z,100799.91
2022-10-06T01:24:48.054Z,100805.13
2022-10-06T01:27:18.641Z,100810.44
2022-10-06T01:29:47.068Z,100820.84
2022-10-06T01:32:16.257Z,100815.38
2022-10-06T01:34:44.650Z,100815.53
2022-10-06T01:37:13.041Z,100820.75
2022-10-06T01:39:42.105Z,100831.94
2022-10-06T01:42:12.327Z,100834.59
2022-10-06T01:44:40.769Z,100836.94
2022-10-06T01:47:09.743Z,100835.22
2022-10-06T01:49:38.176Z,100852.47
2022-10-06T01:52:06.662Z,100859.47
2022-10-06T01:54:36.631Z,100863.00
2022-10-06T01:57:07.464Z,100865.69
2022-10-06T01:59:37.341Z,100872.53
2022-10-06T02:02:05.923Z,100872.72
2022-10-06T02:04:34.340Z,100879.78
2022-10-06T02:07:02.751Z,100878.91
2022-10-06T02:09:31.390Z,100882.41
2022-10-06T02:12:00.204Z,100888.50
2022-10-06T02:14:32.109Z,100888.56
2022-10-06T02:17:02.047Z,100904.19
2022-10-06T02:19:30.409Z,100905.19
2022-10-06T02:22:00.021Z,100921.66
2022-10-06T02:24:28.381Z,100926.91
2022-10-06T02:26:56.900Z,100931.31
2022-10-06T02:29:26.149Z,100933.13
2022-10-06T02:31:55.738Z,100936.81
2022-10-06T02:34:25.712Z,100937.00
2022-10-06T02:36:54.752Z,100950.03
2022-10-06T02:39:23.171Z,100952.88
2022-10-06T02:41:51.553Z,100951.09
2022-10-06T02:44:21.527Z,100952.94
2022-10-06T02:46:50.224Z,100961.72
2022-10-06T02:49:19.458Z,100970.38
2022-10-06T02:51:49.333Z,100971.44
2022-10-06T02:54:17.888Z,100972.22
2022-10-06T02:56:46.566Z,100973.09
2022-10-06T02:59:15.365Z,100977.44
2022-10-06T03:01:44.709Z,100987.97
2022-10-06T03:04:17.557Z,100994.13
2022-10-06T03:06:47.950Z,100987.06
2022-10-06T03:09:28.839Z,100989.69
2022-10-06T03:11:58.053Z,100986.94
2022-10-06T03:14:41.233Z,101003.66
2022-10-06T03:17:10.565Z,101019.19
2022-10-06T03:19:45.234Z,101019.19
2022-10-06T03:22:14.983Z,101027.84
2022-10-06T03:24:52.068Z,101036.50
2022-10-06T03:27:20.471Z,101036.53
2022-10-06T03:29:49.004Z,101035.66
2022-10-06T03:32:17.768Z,101034.88
2022-10-06T03:34:46.868Z,101045.41
2022-10-06T03:37:19.196Z,101048.88
2022-10-06T03:39:47.739Z,101044.41
2022-10-06T03:42:16.522Z,101050.44
2022-10-06T03:44:44.983Z,101055.81
2022-10-06T03:47:16.989Z,101066.22
2022-10-06T03:49:45.996Z,101067.19
2022-10-06T03:52:19.320Z,101086.34
2022-10-06T03:54:50.754Z,101083.69
2022-10-06T03:57:19.055Z,101088.03
2022-10-06T03:59:47.525Z,101093.34
2022-10-06T04:02:16.823Z,101085.63
2022-10-06T04:04:45.272Z,101098.63
2022-10-06T04:07:13.730Z,101093.41
2022-10-06T04:09:43.528Z,101092.53
2022-10-06T04:12:13.467Z,101096.94
2022-10-06T04:14:43.928Z,101101.25
2022-10-06T04:17:12.688Z,101106.53
2022-10-06T04:19:42.692Z,101109.94
2022-10-06T04:22:11.075Z,101118.75
2022-10-06T04:24:39.572Z,101127.53
2022-10-06T04:27:27.256Z,101122.34
2022-10-06T04:30:12.636Z,101132.69
2022-10-06T04:32:41.658Z,101131.03
2022-10-06T04:35:10.555Z,101136.31
2022-10-06T04:37:39.409Z,101137.13
2022-10-06T04:40:09.638Z,101137.97
2022-10-06T04:42:40.204Z,101144.16
2022-10-06T04:45:13.014Z,101139.78
2022-10-06T04:47:42.349Z,101142.41
2022-10-06T04:50:11.742Z,101162.47
2022-10-06T04:52:51.396Z,101172.97
2022-10-06T04:55:20.012Z,101167.78
2022-10-06T04:57:50.008Z,101169.47
2022-10-06T05:00:25.587Z,101188.56
2022-10-06T05:02:55.514Z,101179.00
2022-10-06T05:05:24.233Z,101180.84
2022-10-06T05:07:54.272Z,101178.25
2022-10-06T05:10:22.819Z,101184.41
2022-10-06T05:12:52.539Z,101197.59
2022-10-06T05:15:21.080Z,101203.06
2022-10-06T05:17:50.134Z,101202.25
2022-10-06T05:20:22.718Z,101200.41
2022-10-06T05:22:51.702Z,101205.75
2022-10-06T05:25:20.613Z,101206.66
2022-10-06T05:27:49.078Z,101211.94
2022-10-06T05:30:19.038Z,101223.13
2022-10-06T05:32:50.383Z,101221.41
2022-10-06T05:35:19.590Z,101220.72
2022-10-06T05:37:48.207Z,101239.06
2022-10-06T05:40:17.401Z,101240.00
2022-10-06T05:42:45.774Z,101253.91
2022-10-06T05:45:15.046Z,101266.22
2022-10-06T05:47:44.820Z,101270.69
2022-10-06T05:50:13.208Z,101274.97
2022-10-06T05:52:42.211Z,101272.19
2022-10-06T05:55:11.173Z,101289.72
2022-10-06T05:57:40.169Z,101270.56
2022-10-06T06:00:10.251Z,101290.53
2022-10-06T06:02:41.623Z,101288.72
2022-10-06T06:05:12.706Z,101293.97
2022-10-06T06:07:41.822Z,101304.47
2022-10-06T06:10:10.699Z,101313.13
2022-10-06T06:12:39.042Z,101315.75
2022-10-06T06:15:50.741Z,101326.28
2022-10-06T06:18:19.417Z,101332.41
2022-10-06T06:20:58.318Z,101341.94
2022-10-06T06:23:32.272Z,101334.13
2022-10-06T06:26:02.953Z,101348.03
2022-10-06T06:28:35.622Z,101347.19
2022-10-06T06:31:07.640Z,101344.63
2022-10-06T06:33:37.725Z,101354.94
2022-10-06T06:36:14.920Z,101348.06
2022-10-06T06:38:43.625Z,101358.56
2022-10-06T06:41:17.411Z,101381.13
2022-10-06T06:43:46.510Z,101374.13
2022-10-06T06:46:38.219Z,101388.03
2022-10-06T06:49:12.168Z,101395.06
2022-10-06T06:51:50.507Z,101403.81
2022-10-06T06:54:21.692Z,101414.22
2022-10-06T06:56:56.654Z,101413.38
2022-10-06T06:59:25.740Z,101418.59
2022-10-06T07:01:57.774Z,101421.91
2022-10-06T07:04:27.873Z,101428.13
2022-10-06T07:06:58.536Z,101422.88
2022-10-06T07:09:32.666Z,101419.44
2022-10-06T07:12:06.921Z,101438.47
2022-10-06T07:14:35.292Z,101441.03
2022-10-06T07:17:33.616Z,101437.28
2022-10-06T07:20:19.445Z,101447.78
2022-10-06T07:23:06.787Z,101440.94
2022-10-06T07:25:35.255Z,101452.16
2022-10-06T07:28:08.504Z,101455.69
2022-10-06T07:30:41.167Z,101460.84
2022-10-06T07:33:21.578Z,101465.09
2022-10-06T07:35:51.021Z,101466.91
2022-10-06T07:38:25.891Z,101470.38
2022-10-06T07:43:46.937Z,101473.56
2022-10-06T07:46:19.376Z,101470.94
2022-10-06T07:49:01.285Z,101477.75
2022-10-06T07:51:29.794Z,101481.88
2022-10-06T07:54:01.678Z,101486.94
2022-10-06T07:56:50.351Z,101493.13
2022-10-06T07:59:21.420Z,101488.88
2022-10-06T08:01:51.349Z,101501.03
2022-10-06T08:04:19.859Z,101500.25
2022-10-06T08:06:49.514Z,101492.22
2022-10-06T08:09:19.938Z,101498.91
2022-10-06T08:11:48.877Z,101511.03
2022-10-06T08:14:17.290Z,101516.50
2022-10-06T08:16:45.706Z,101513.03
2022-10-06T08:19:14.641Z,101524.38
2022-10-06T08:21:43.031Z,101526.56
2022-10-06T08:24:11.392Z,101526.75
2022-10-06T08:26:41.102Z,101529.06
2022-10-06T08:29:09.469Z,101538.34
2022-10-06T08:31:37.938Z,101540.19
2022-10-06T08:34:11.763Z,101537.38
2022-10-06T08:36:44.939Z,101549.72
2022-10-06T08:39:20.774Z,101548.94
2022-10-06T08:41:54.755Z,101546.28
2022-10-06T08:44:32.158Z,101546.91
2022-10-06T08:47:04.690Z,101553.81
2022-10-06T08:49:38.885Z,101560.22
2022-10-06T08:52:22.350Z,101557.47
2022-10-06T08:54:59.863Z,101567.53
2022-10-06T08:57:39.215Z,101563.38
2022-10-06T09:00:14.253Z,101567.94
2022-10-06T09:02:47.275Z,101569.66
2022-10-06T09:05:19.306Z,101572.53
2022-10-06T09:08:02.665Z,101577.75
2022-10-06T09:10:44.502Z,101569.09
2022-10-06T09:13:22.087Z,101572.38
2022-10-06T09:15:55.277Z,101567.22
2022-10-06T09:18:49.435Z,101579.91
2022-10-06T09:21:23.415Z,101577.53
2022-10-06T09:23:57.047Z,101585.44
2022-10-06T09:26:31.399Z,101585.69
2022-10-06T09:29:01.615Z,101586.69
2022-10-06T09:31:32.898Z,101585.03
2022-10-06T09:34:06.375Z,101585.38
2022-10-06T09:37:01.717Z,101577.81
2022-10-06T09:39:36.632Z,101580.59
2022-10-06T09:42:13.698Z,101582.41
2022-10-06T09:44:59.597Z,101581.91
2022-10-06T09:47:45.133Z,101585.16
2022-10-06T09:50:24.303Z,101587.88
2022-10-06T09:53:12.375Z,101590.94
2022-10-06T09:55:55.312Z,101581.16
2022-10-06T09:58:31.595Z,101583.69
2022-10-06T10:01:04.870Z,101589.06
2022-10-06T10:04:08.699Z,101597.41
2022-10-06T10:06:38.519Z,101591.31
2022-10-06T10:09:28.065Z,101593.28
2022-10-06T10:12:31.102Z,101588.72
2022-10-06T10:15:04.154Z,101588.84
2022-10-06T10:17:41.625Z,101590.69
2022-10-06T10:20:28.414Z,101587.84
2022-10-06T10:22:59.702Z,101584.38
2022-10-06T10:26:09.250Z,101592.69
2022-10-06T10:29:01.932Z,101579.38
2022-10-06T10:31:44.898Z,101580.88
2022-10-06T10:34:34.221Z,101580.16
2022-10-06T10:37:10.077Z,101592.50
2022-10-06T10:39:43.515Z,101587.97
2022-10-06T10:42:18.568Z,101595.81
2022-10-06T10:44:54.342Z,101597.78
2022-10-06T10:47:27.984Z,101595.19
2022-10-06T10:50:06.894Z,101593.38
2022-10-06T10:52:41.392Z,101596.16
2022-10-06T10:55:26.751Z,101593.34
2022-10-06T10:57:57.613Z,101595.19
2022-10-06T11:00:30.911Z,101591.00
2022-10-06T11:03:02.507Z,101599.78
2022-10-06T11:06:14.556Z,101594.16
2022-10-06T11:08:51.298Z,101589.34
2022-10-06T11:11:29.121Z,101591.47
2022-10-06T11:14:01.468Z,101600.00
2022-10-06T11:16:42.831Z,101597.69
2022-10-06T11:19:22.967Z,101596.00
2022-10-06T11:22:02.492Z,101593.13
2022-10-06T11:24:42.179Z,101587.75
2022-10-06T11:27:34.719Z,101591.22
2022-10-06T11:30:12.451Z,101587.94
2022-10-06T11:33:01.509Z,101591.72
2022-10-06T11:35:36.335Z,101585.19
2022-10-06T11:38:15.033Z,101584.97
2022-10-06T11:41:05.117Z,101582.25
2022-10-06T11:43:47.243Z,101575.19
2022-10-06T11:46:35.795Z,101578.50
2022-10-06T11:49:53.473Z,101573.69
2022-10-06T11:52:55.929Z,101573.75
2022-10-06T11:55:29.008Z,101569.72
2022-10-06T12:01:06.084Z,101562.22
2022-10-06T12:04:12.696Z,101564.53
2022-10-06T12:07:04.593Z,101564.75
2022-10-06T12:09:53.125Z,101557.75
2022-10-06T12:13:38.543Z,101562.03
2022-10-06T12:19:23.986Z,101554.63
2022-10-06T12:22:01.056Z,101557.72
2022-10-06T12:24:41.288Z,101545.81
2022-10-06T12:27:36.565Z,101552.03
2022-10-06T12:30:19.586Z,101545.00
2022-10-06T12:32:54.602Z,101544.38
2022-10-06T12:35:32.792Z,101543.97
2022-10-06T12:38:05.029Z,101541.44
2022-10-06T12:40:54.579Z,101535.75
2022-10-06T12:43:59.757Z,101550.69
2022-10-06T12:46:49.690Z,101540.16
2022-10-06T12:49:37.114Z,101537.41
2022-10-06T12:52:20.367Z,101534.34
2022-10-06T12:55:03.320Z,101546.59
2022-10-06T12:57:32.146Z,101543.69
2022-10-06T13:00:00.506Z,101549.00
2022-10-06T13:02:31.391Z,101543.25
2022-10-06T13:05:04.556Z,101539.47
2022-10-06T13:07:34.902Z,101535.03
2022-10-06T13:10:21.142Z,101529.88
2022-10-06T13:12:52.125Z,101529.03
2022-10-06T13:15:25.402Z,101529.97
2022-10-06T13:17:58.384Z,101525.97
2022-10-06T13:20:41.963Z,101529.59
2022-10-06T13:23:26.594Z,101530.13
2022-10-06T13:25:58.762Z,101529.59
2022-10-06T13:28:31.852Z,101523.13
2022-10-06T13:33:41.643Z,101521.81
2022-10-06T13:36:11.103Z,101519.59
2022-10-06T13:38:41.285Z,101519.06
2022-10-06T13:41:23.000Z,101514.84
2022-10-06T13:43:55.175Z,101520.03
2022-10-06T13:46:27.518Z,101517.72
2022-10-06T13:49:03.382Z,101515.00
2022-10-06T13:51:33.819Z,101513.91
2022-10-06T13:54:17.168Z,101521.16
2022-10-06T13:56:46.154Z,101519.34
2022-10-06T13:59:38.515Z,101521.16
2022-10-06T14:02:26.592Z,101517.81
2022-10-06T14:05:27.504Z,101516.72
2022-10-06T14:07:59.836Z,101514.47
2022-10-06T14:10:33.616Z,101515.19
2022-10-06T14:13:03.142Z,101516.59
2022-10-06T14:15:37.767Z,101507.63
2022-10-06T14:18:06.350Z,101513.31
2022-10-06T14:20:41.366Z,101505.91
2022-10-06T14:23:50.401Z,101504.25
2022-10-06T14:26:21.385Z,101507.03
2022-10-06T14:28:52.898Z,101506.44
2022-10-06T14:31:22.205Z,101505.50
2022-10-06T14:33:53.057Z,101504.75
2022-10-06T14:36:25.769Z,101501.09
2022-10-06T14:38:55.459Z,101501.03
2022-10-06T14:41:27.835Z,101509.13
2022-10-06T14:43:57.872Z,101497.06
2022-10-06T14:46:27.275Z,101494.75
2022-10-06T14:48:56.150Z,101502.53
2022-10-06T14:51:27.415Z,101501.50
2022-10-06T14:53:57.595Z,101490.34
2022-10-06T14:56:31.692Z,101492.84
2022-10-06T14:59:02.311Z,101494.72
2022-10-06T15:01:31.381Z,101490.47
2022-10-06T15:04:02.376Z,101496.00
2022-10-06T15:06:49.534Z,101489.88
2022-10-06T15:09:18.063Z,101487.19
2022-10-06T15:11:46.701Z,101487.19
2022-10-06T15:14:15.376Z,101488.28
2022-10-06T15:16:44.666Z,101483.19
2022-10-06T15:19:13.955Z,101485.81
2022-10-06T15:21:46.127Z,101485.47
2022-10-06T15:24:17.166Z,101479.72
2022-10-06T15:27:04.517Z,101481.47
2022-10-06T15:29:33.996Z,101477.47
2022-10-06T15:32:06.431Z,101480.91
2022-10-06T15:34:37.684Z,101475.72
2022-10-06T15:37:08.024Z,101481.75
2022-10-06T15:39:38.486Z,101476.38
2022-10-06T15:42:08.665Z,101476.63
2022-10-06T15:44:37.783Z,101460.25
2022-10-06T15:47:07.362Z,101470.91
2022-10-06T15:49:40.455Z,101465.59
2022-10-06T15:52:13.530Z,101470.91
2022-10-06T15:54:43.843Z,101471.91
2022-10-06T15:57:19.474Z,101479.13
2022-10-06T15:59:49.322Z,101474.88
2022-10-06T16:02:20.002Z,101481.81
2022-10-06T16:05:26.271Z,101469.66
2022-10-06T16:07:55.972Z,101481.75
2022-10-06T16:10:24.453Z,101462.63
2022-10-06T16:12:52.738Z,101473.94
2022-10-06T16:15:21.088Z,101469.81
2022-10-06T16:17:51.682Z,101476.16
2022-10-06T16:20:20.034Z,101478.84
2022-10-06T16:22:48.371Z,101467.59
2022-10-06T16:25:18.197Z,101472.97
2022-10-06T16:27:46.568Z,101462.81
2022-10-06T16:30:15.239Z,101465.66
2022-10-06T16:32:43.629Z,101474.44
2022-10-06T16:35:17.419Z,101467.50
2022-10-06T16:37:49.867Z,101478.16
2022-10-06T16:40:19.770Z,101472.94
2022-10-06T16:42:48.185Z,101463.47
2022-10-06T16:45:16.926Z,101473.13
2022-10-06T16:47:45.466Z,101475.03
2022-10-06T16:50:13.919Z,101473.38
2022-10-06T16:52:42.282Z,101476.06
2022-10-06T16:55:10.710Z,101484.91
2022-10-06T16:57:40.500Z,101482.28
2022-10-06T17:00:11.003Z,101476.81
2022-10-06T17:02:41.045Z,101477.75
2022-10-06T17:05:10.196Z,101487.34
2022-10-06T17:07:38.538Z,101488.88
2022-10-06T17:10:20.003Z,101485.50
2022-10-06T17:12:50.755Z,101485.44
2022-10-06T17:15:19.107Z,101487.47
2022-10-06T17:17:47.868Z,101482.47
2022-10-06T17:20:16.609Z,101484.53
2022-10-06T17:22:44.970Z,101490.03
2022-10-06T17:25:14.178Z,101488.34
2022-10-06T17:27:42.655Z,101481.28
2022-10-06T17:30:15.349Z,101490.88
2022-10-06T17:32:44.600Z,101492.91
2022-10-06T17:35:13.517Z,101494.88
2022-10-06T17:37:42.501Z,101488.81
2022-10-06T17:40:11.571Z,101488.78
2022-10-06T17:42:41.276Z,101494.16
2022-10-06T17:45:11.938Z,101504.72
2022-10-06T17:47:41.529Z,101504.06
2022-10-06T17:50:11.223Z,101496.34
2022-10-06T17:52:39.962Z,101505.06
2022-10-06T17:55:10.511Z,101502.63
2022-10-06T17:57:38.934Z,101508.59
2022-10-06T18:00:09.899Z,101509.50
2022-10-06T18:02:41.903Z,101500.00
2022-10-06T18:05:10.771Z,101499.34
2022-10-06T18:07:39.984Z,101497.75
2022-10-06T18:10:26.418Z,101499.66
2022-10-06T18:12:54.738Z,101504.13
2022-10-06T18:15:23.012Z,101491.16
2022-10-06T18:17:52.883Z,101499.00
2022-10-06T18:20:21.528Z,101496.34
2022-10-06T18:22:50.391Z,101503.44
2022-10-06T18:25:21.033Z,101506.13
2022-10-06T18:27:53.083Z,101507.84
2022-10-06T18:30:23.710Z,101504.38
2022-10-06T18:35:29.880Z,101498.31
2022-10-06T18:38:37.139Z,101502.78
2022-10-06T18:41:08.060Z,101499.34
2022-10-06T18:43:36.430Z,101501.09
2022-10-06T18:46:24.089Z,101500.28
2022-10-06T18:48:58.284Z,101496.03
2022-10-06T18:51:31.999Z,101498.63
2022-10-06T18:54:02.489Z,101490.81
2022-10-06T18:56:34.229Z,101491.66
2022-10-06T18:59:06.021Z,101485.63
2022-10-06T19:01:34.402Z,101493.47
2022-10-06T19:04:05.525Z,101495.22
2022-10-06T19:06:35.561Z,101497.84
2022-10-06T19:09:04.985Z,101501.38
2022-10-06T19:11:51.814Z,101503.13
2022-10-06T19:14:22.398Z,101505.78
2022-10-06T19:16:55.123Z,101491.88
2022-10-06T19:19:26.498Z,101502.31
2022-10-06T19:21:59.424Z,101503.19
2022-10-06T19:24:31.223Z,101504.09
2022-10-06T19:27:02.367Z,101499.75
2022-10-06T19:29:36.822Z,101505.91
2022-10-06T19:32:07.515Z,101505.06
2022-10-06T19:34:38.481Z,101501.59
2022-10-06T19:37:07.692Z,101505.97
2022-10-06T19:39:42.777Z,101512.91
2022-10-06T19:42:29.768Z,101511.16
2022-10-06T19:44:58.623Z,101506.81
2022-10-06T19:47:27.426Z,101508.59
2022-10-06T19:50:02.104Z,101513.81
2022-10-06T19:52:32.443Z,101514.75
2022-10-06T19:55:01.194Z,101509.56
2022-10-06T19:57:31.046Z,101512.16
2022-10-06T19:59:59.483Z,101519.13
2022-10-06T20:02:28.801Z,101517.38
2022-10-06T20:04:58.828Z,101524.38
2022-10-06T20:07:27.933Z,101519.19
2022-10-06T20:09:57.000Z,101521.78
2022-10-06T20:12:26.954Z,101524.41
2022-10-06T20:14:55.425Z,101529.59
2022-10-06T20:17:23.809Z,101529.59
2022-10-06T20:19:57.326Z,101527.84
2022-10-06T20:22:27.934Z,101519.16
2022-10-06T20:24:56.331Z,101517.44
2022-10-06T20:27:25.017Z,101527.84
2022-10-06T20:29:53.831Z,101514.81
2022-10-06T20:32:23.133Z,101528.72
2022-10-06T20:34:51.446Z,101526.09
2022-10-06T20:37:19.737Z,101524.38
2022-10-06T20:40:06.947Z,101525.19
2022-10-06T20:42:35.249Z,101519.06
2022-10-06T20:45:03.641Z,101524.31
2022-10-06T20:47:32.013Z,101521.72
2022-10-06T20:50:00.400Z,101511.31
2022-10-06T20:52:29.418Z,101513.91
2022-10-06T20:54:59.171Z,101517.38
2022-10-06T20:57:33.633Z,101516.47
2022-10-06T21:00:02.269Z,101515.53
2022-10-06T21:02:31.990Z,101517.16
2022-10-06T21:05:02.116Z,101510.22
2022-10-06T21:07:31.550Z,101515.41
2022-10-06T21:10:01.288Z,101506.75
2022-10-06T21:12:29.563Z,101505.06
2022-10-06T21:14:57.950Z,101515.41
2022-10-06T21:17:26.222Z,101501.38
2022-10-06T21:19:54.529Z,101509.16
2022-10-06T21:22:22.853Z,101504.81
2022-10-06T21:24:51.167Z,101504.88
2022-10-06T21:27:21.051Z,101510.03
2022-10-06T21:29:49.419Z,101502.22
2022-10-06T21:32:18.553Z,101505.75
2022-10-06T21:34:46.793Z,101509.19
2022-10-06T21:37:15.050Z,101501.25
2022-10-06T21:39:43.361Z,101496.03
2022-10-06T21:42:11.683Z,101495.09
2022-10-06T21:44:41.379Z,101496.88
2022-10-06T21:47:09.749Z,101495.94
2022-10-06T21:49:38.036Z,101496.84
2022-10-06T21:52:06.370Z,101489.91
2022-10-06T21:54:34.703Z,101489.78
2022-10-06T21:57:03.033Z,101488.97
2022-10-06T21:59:31.348Z,101485.41
2022-10-06T22:02:01.113Z,101473.19
2022-10-06T22:04:29.456Z,101486.25
2022-10-06T22:06:57.896Z,101478.41
2022-10-06T22:09:26.191Z,101480.03
2022-10-06T22:11:54.505Z,101473.91
2022-10-06T22:14:22.879Z,101472.13
2022-10-06T22:16:51.321Z,101473.84
2022-10-06T22:19:21.290Z,101467.66
2022-10-06T22:21:49.936Z,101482.38
2022-10-06T22:24:20.832Z,101478.94
2022-10-06T22:26:50.058Z,101472.81
2022-10-06T22:29:20.547Z,101476.25
2022-10-06T22:31:50.090Z,101478.00
2022-10-06T22:34:21.687Z,101464.94
2022-10-06T22:36:49.984Z,101470.09
2022-10-06T22:39:18.740Z,101463.16
2022-10-06T22:41:47.055Z,101461.31
2022-10-06T22:44:15.353Z,101474.47
2022-10-06T22:46:44.132Z,101464.16
2022-10-06T22:49:12.716Z,101464.97
2022-10-06T22:51:42.377Z,101455.44
2022-10-06T22:54:19.516Z,101455.41
2022-10-06T22:56:47.935Z,101451.06
2022-10-06T22:59:16.249Z,101451.00
2022-10-06T23:01:44.573Z,101445.88
2022-10-06T23:04:12.928Z,101443.34
2022-10-06T23:06:42.672Z,101438.06
2022-10-06T23:09:12.588Z,101431.88
2022-10-06T23:11:40.924Z,101430.94
2022-10-06T23:14:09.211Z,101442.28
2022-10-06T23:16:37.589Z,101439.72
2022-10-06T23:19:05.895Z,101431.00
2022-10-06T23:21:34.221Z,101425.75
2022-10-06T23:24:03.885Z,101435.97
2022-10-06T23:26:33.420Z,101424.78
2022-10-06T23:29:03.850Z,101417.78
2022-10-06T23:31:32.335Z,101437.72
2022-10-06T23:34:00.673Z,101429.94
2022-10-06T23:36:29.005Z,101427.25
2022-10-06T23:38:57.306Z,101434.25
2022-10-06T23:41:27.227Z,101422.91
2022-10-06T23:43:55.566Z,101422.78
2022-10-06T23:46:23.909Z,101421.84
2022-10-06T23:48:52.259Z,101409.75
2022-10-06T23:51:20.713Z,101425.41
2022-10-06T23:53:49.059Z,101412.28
2022-10-06T23:56:19.038Z,101410.63
2022-10-06T23:58:48.999Z,101413.28
